Carnival Victory — 3FFL8 — position and weather

sailwx.info

Track history (hours):
 
Tides and Currents Weather Stations Pressure Air Temp Water Temp Dewpoint Dewpoint Depression Visibility Wind Speed Wind Dir Waves Ship Positions

Carnival Victory

Operator: Carnival Cruise Lines

Last reported at 2014-Jul-24 11:00 UTC. Time now 2014-Jul-24 12:19 UTC.
Position N 24°00' W 075°36'.

Type: Ship. MMSI: 355263000.

Wind from 140 at 8 knots

Waves 1.0 meters (3 feet), 5 second period

Barometer 1016.0 mb
Air temperature 28.0 ° C
Visibility: greater than 10.8 NM
Dewpoint 25.0 ° C
Water temperature 30.0 ° C

Date/timePositionNaut miles runAvg speedWind from/ knotsBaromVisibWave heightAir tempDewpointWater temp
2014-Jul-24 11:00N 24°00' W 075°36'108 2.2 140 / 81016.010.8 1.028.025.030.0
2014-Jul-22 11:00N 25°36' W 076°30'18436.8 090 / 211016.010.8 2.028.025.029.0
2014-Jul-22 06:00N 25°36' W 079°54'7119.2 100 / 191015.0 5.4 26.022.031.0
2014-Jul-22 02:17N 26°12' W 078°46'1216.2
2014-Jul-22 01:31N 26°16' W 078°59'1515.4
2014-Jul-22 00:34N 26°14' W 079°16'1817.5
2014-Jul-21 23:34N 26°04' W 079°32'1918.7
2014-Jul-21 22:34N 25°54' W 079°49'1616.3
2014-Jul-21 21:33N 25°46' W 080°05'5 4.6
2014-Jul-21 20:33N 25°47' W 080°10'0 0.1
2014-Jul-21 20:11N 25°47' W 080°10'0 0.0
2014-Jul-21 19:32N 25°47' W 080°10'0 0.0
2014-Jul-21 18:32N 25°47' W 080°10'0 0.0
2014-Jul-21 17:22N 25°47' W 080°10'0 0.0
2014-Jul-21 16:28N 25°47' W 080°10'0 0.0
2014-Jul-21 15:27N 25°47' W 080°10'0 0.0
2014-Jul-21 14:33N 25°47' W 080°10'0 0.0
2014-Jul-21 13:27N 25°47' W 080°10'0 0.0
2014-Jul-21 12:32N 25°47' W 080°10'0 0.0
2014-Jul-21 11:32N 25°47' W 080°10'1 1.2
2014-Jul-21 10:33N 25°46' W 080°09'9 8.8
2014-Jul-21 09:33N 25°44' W 079°60'1312.8
2014-Jul-21 08:33N 25°31' W 079°57'414 9.1
2014-Jul-19 11:00N 21°18' W 085°54'40411.6 110 / 201013.010.8 1.028.025.029.5
2014-Jul-18 00:19N 25°17' W 079°60'911.4
2014-Jul-17 23:33N 25°26' W 079°58'1211.7
2014-Jul-17 22:33N 25°38' W 079°59'1010.5
2014-Jul-17 21:33N 25°45' W 080°07'3 3.0
2014-Jul-17 20:26N 25°47' W 080°10'0 0.0
2014-Jul-17 19:28N 25°47' W 080°10'0 0.0
2014-Jul-17 18:25N 25°47' W 080°10'0 0.0
2014-Jul-17 17:33N 25°47' W 080°10'0 0.0
2014-Jul-17 16:27N 25°47' W 080°10'0 0.0
2014-Jul-17 15:20N 25°47' W 080°10'0 0.0
2014-Jul-17 14:32N 25°47' W 080°10'0 0.0
2014-Jul-17 13:23N 25°47' W 080°10'0 0.0
2014-Jul-17 12:31N 25°47' W 080°10'0 0.0
2014-Jul-17 11:25N 25°47' W 080°10'1 0.7
2014-Jul-17 10:33N 25°46' W 080°09'9 8.7
2014-Jul-17 09:33N 25°43' W 080°00'1514.6
2014-Jul-17 08:31N 25°29' W 079°57'4718.8
2014-Jul-17 06:00N 24°42' W 080°06'339 7.9 170 / 81014.0 5.4 29.025.029.7
2014-Jul-15 11:00N 19°06' W 080°54'8016.1 360 / 31013.0 5.4 3.028.025.029.0
2014-Jul-15 06:00N 18°54' W 079°30'171 9.0 070 / 71013.0 5.4 28.024.028.9
2014-Jul-14 11:00N 18°42' W 076°30'   080 / 211015.010.8 3.028.025.029.0
Track history (hours):
 
Tides and Currents Weather Stations Pressure Air Temp Water Temp Dewpoint Dewpoint Depression Visibility Wind Speed Wind Dir Waves Ship Positions

Carnival Victory

Operator: Carnival Cruise Lines

Last reported at 2014-Jul-24 11:00 UTC. Time now 2014-Jul-24 12:19 UTC.
Position N 24°00' W 075°36'.

Type: Ship. MMSI: 355263000.

Wind from 140 at 8 knots

Waves 1.0 meters (3 feet), 5 second period

Barometer 1016.0 mb
Air temperature 28.0 ° C
Visibility: greater than 10.8 NM
Dewpoint 25.0 ° C
Water temperature 30.0 ° C

Date/timePositionNaut miles runAvg speedWind from/ knotsBaromVisibWave heightAir tempDewpointWater temp
2014-Jul-24 11:00N 24°00' W 075°36'108 2.2 140 / 81016.010.8 1.028.025.030.0
2014-Jul-22 11:00N 25°36' W 076°30'18436.8 090 / 211016.010.8 2.028.025.029.0
2014-Jul-22 06:00N 25°36' W 079°54'7119.2 100 / 191015.0 5.4 26.022.031.0
2014-Jul-22 02:17N 26°12' W 078°46'1216.2
2014-Jul-22 01:31N 26°16' W 078°59'1515.4
2014-Jul-22 00:34N 26°14' W 079°16'1817.5
2014-Jul-21 23:34N 26°04' W 079°32'1918.7
2014-Jul-21 22:34N 25°54' W 079°49'1616.3
2014-Jul-21 21:33N 25°46' W 080°05'5 4.6
2014-Jul-21 20:33N 25°47' W 080°10'0 0.1
2014-Jul-21 20:11N 25°47' W 080°10'0 0.0
2014-Jul-21 19:32N 25°47' W 080°10'0 0.0
2014-Jul-21 18:32N 25°47' W 080°10'0 0.0
2014-Jul-21 17:22N 25°47' W 080°10'0 0.0
2014-Jul-21 16:28N 25°47' W 080°10'0 0.0
2014-Jul-21 15:27N 25°47' W 080°10'0 0.0
2014-Jul-21 14:33N 25°47' W 080°10'0 0.0
2014-Jul-21 13:27N 25°47' W 080°10'0 0.0
2014-Jul-21 12:32N 25°47' W 080°10'0 0.0
2014-Jul-21 11:32N 25°47' W 080°10'1 1.2
2014-Jul-21 10:33N 25°46' W 080°09'9 8.8
2014-Jul-21 09:33N 25°44' W 079°60'1312.8
2014-Jul-21 08:33N 25°31' W 079°57'414 9.1
2014-Jul-19 11:00N 21°18' W 085°54'40411.6 110 / 201013.010.8 1.028.025.029.5
2014-Jul-18 00:19N 25°17' W 079°60'911.4
2014-Jul-17 23:33N 25°26' W 079°58'1211.7
2014-Jul-17 22:33N 25°38' W 079°59'1010.5
2014-Jul-17 21:33N 25°45' W 080°07'3 3.0
2014-Jul-17 20:26N 25°47' W 080°10'0 0.0
2014-Jul-17 19:28N 25°47' W 080°10'0 0.0
2014-Jul-17 18:25N 25°47' W 080°10'0 0.0
2014-Jul-17 17:33N 25°47' W 080°10'0 0.0
2014-Jul-17 16:27N 25°47' W 080°10'0 0.0
2014-Jul-17 15:20N 25°47' W 080°10'0 0.0
2014-Jul-17 14:32N 25°47' W 080°10'0 0.0
2014-Jul-17 13:23N 25°47' W 080°10'0 0.0
2014-Jul-17 12:31N 25°47' W 080°10'0 0.0
2014-Jul-17 11:25N 25°47' W 080°10'1 0.7
2014-Jul-17 10:33N 25°46' W 080°09'9 8.7
2014-Jul-17 09:33N 25°43' W 080°00'1514.6
2014-Jul-17 08:31N 25°29' W 079°57'4718.8
2014-Jul-17 06:00N 24°42' W 080°06'339 7.9 170 / 81014.0 5.4 29.025.029.7
2014-Jul-15 11:00N 19°06' W 080°54'8016.1 360 / 31013.0 5.4 3.028.025.029.0
2014-Jul-15 06:00N 18°54' W 079°30'171 9.0 070 / 71013.0 5.4 28.024.028.9
2014-Jul-14 11:00N 18°42' W 076°30'   080 / 211015.010.8 3.028.025.029.0

Dump ship's entire track history